sensor_id;sensor_type;location;lat;lon;timestamp;pressure;altitude;pressure_sealevel;temperature
12918;BMP180;6526;54.312;13.092;2023-05-10T00:00:41;101776.00;;;16.40
12918;BMP180;6526;54.312;13.092;2023-05-10T00:03:08;101776.00;;;16.40
12918;BMP180;6526;54.312;13.092;2023-05-10T00:05:34;101775.00;;;16.40
12918;BMP180;6526;54.312;13.092;2023-05-10T00:08:00;101780.00;;;16.30
12918;BMP180;6526;54.312;13.092;2023-05-10T00:10:26;101774.00;;;16.30
12918;BMP180;6526;54.312;13.092;2023-05-10T00:12:52;101779.00;;;16.20
12918;BMP180;6526;54.312;13.092;2023-05-10T00:15:18;101770.00;;;16.20
12918;BMP180;6526;54.312;13.092;2023-05-10T00:17:44;101776.00;;;16.10
12918;BMP180;6526;54.312;13.092;2023-05-10T00:20:11;101773.00;;;16.10
12918;BMP180;6526;54.312;13.092;2023-05-10T00:22:37;101771.00;;;16.00
12918;BMP180;6526;54.312;13.092;2023-05-10T00:25:03;101767.00;;;16.00
12918;BMP180;6526;54.312;13.092;2023-05-10T00:27:29;101760.00;;;15.90
12918;BMP180;6526;54.312;13.092;2023-05-10T00:29:55;101747.00;;;15.90
12918;BMP180;6526;54.312;13.092;2023-05-10T00:32:21;101748.00;;;15.80
12918;BMP180;6526;54.312;13.092;2023-05-10T00:34:47;101748.00;;;15.90
12918;BMP180;6526;54.312;13.092;2023-05-10T00:37:13;101750.00;;;15.80
12918;BMP180;6526;54.312;13.092;2023-05-10T00:39:39;101750.00;;;15.80
12918;BMP180;6526;54.312;13.092;2023-05-10T00:42:05;101743.00;;;15.70
12918;BMP180;6526;54.312;13.092;2023-05-10T00:44:31;101743.00;;;15.80
12918;BMP180;6526;54.312;13.092;2023-05-10T00:46:57;101749.00;;;15.80
12918;BMP180;6526;54.312;13.092;2023-05-10T00:49:24;101749.00;;;15.70
12918;BMP180;6526;54.312;13.092;2023-05-10T00:51:50;101746.00;;;15.70
12918;BMP180;6526;54.312;13.092;2023-05-10T00:54:17;101735.00;;;15.70
12918;BMP180;6526;54.312;13.092;2023-05-10T00:56:43;101745.00;;;15.70
12918;BMP180;6526;54.312;13.092;2023-05-10T00:59:15;101737.00;;;15.70
12918;BMP180;6526;54.312;13.092;2023-05-10T01:01:45;101733.00;;;15.80
12918;BMP180;6526;54.312;13.092;2023-05-10T01:04:15;101733.00;;;15.80
12918;BMP180;6526;54.312;13.092;2023-05-10T01:06:43;101722.00;;;15.80
12918;BMP180;6526;54.312;13.092;2023-05-10T01:09:10;101729.00;;;15.70
12918;BMP180;6526;54.312;13.092;2023-05-10T01:11:38;101723.00;;;15.70
12918;BMP180;6526;54.312;13.092;2023-05-10T01:14:05;101733.00;;;15.70
12918;BMP180;6526;54.312;13.092;2023-05-10T01:16:36;101735.00;;;15.70
12918;BMP180;6526;54.312;13.092;2023-05-10T01:19:22;101718.00;;;15.70
12918;BMP180;6526;54.312;13.092;2023-05-10T01:30:28;101718.00;;;15.70
12918;BMP180;6526;54.312;13.092;2023-05-10T01:35:41;101721.00;;;15.60
12918;BMP180;6526;54.312;13.092;2023-05-10T01:38:10;101720.00;;;15.60
12918;BMP180;6526;54.312;13.092;2023-05-10T01:40:42;101726.00;;;15.70
12918;BMP180;6526;54.312;13.092;2023-05-10T01:43:22;101710.00;;;15.70
12918;BMP180;6526;54.312;13.092;2023-05-10T01:46:07;101705.00;;;15.60
12918;BMP180;6526;54.312;13.092;2023-05-10T01:48:44;101702.00;;;15.60
12918;BMP180;6526;54.312;13.092;2023-05-10T01:51:15;101706.00;;;15.60
12918;BMP180;6526;54.312;13.092;2023-05-10T01:53:44;101704.00;;;15.60
12918;BMP180;6526;54.312;13.092;2023-05-10T01:56:12;101713.00;;;15.50
12918;BMP180;6526;54.312;13.092;2023-05-10T01:58:40;101706.00;;;15.50
12918;BMP180;6526;54.312;13.092;2023-05-10T02:01:10;101692.00;;;15.50
12918;BMP180;6526;54.312;13.092;2023-05-10T02:03:39;101706.00;;;15.50
12918;BMP180;6526;54.312;13.092;2023-05-10T02:06:08;101699.00;;;15.50
12918;BMP180;6526;54.312;13.092;2023-05-10T02:08:36;101705.00;;;15.40
12918;BMP180;6526;54.312;13.092;2023-05-10T02:11:03;101700.00;;;15.40
12918;BMP180;6526;54.312;13.092;2023-05-10T02:13:32;101713.00;;;15.40
12918;BMP180;6526;54.312;13.092;2023-05-10T02:16:00;101706.00;;;15.40
12918;BMP180;6526;54.312;13.092;2023-05-10T02:18:27;101703.00;;;15.40
12918;BMP180;6526;54.312;13.092;2023-05-10T02:20:54;101702.00;;;15.40
12918;BMP180;6526;54.312;13.092;2023-05-10T02:23:21;101707.00;;;15.40
12918;BMP180;6526;54.312;13.092;2023-05-10T02:25:48;101687.00;;;15.30
12918;BMP180;6526;54.312;13.092;2023-05-10T02:28:16;101694.00;;;15.30
12918;BMP180;6526;54.312;13.092;2023-05-10T02:30:43;101689.00;;;15.30
12918;BMP180;6526;54.312;13.092;2023-05-10T02:33:10;101694.00;;;15.30
12918;BMP180;6526;54.312;13.092;2023-05-10T02:35:46;101688.00;;;15.20
12918;BMP180;6526;54.312;13.092;2023-05-10T02:38:14;101696.00;;;15.20
12918;BMP180;6526;54.312;13.092;2023-05-10T02:40:43;101703.00;;;15.10
12918;BMP180;6526;54.312;13.092;2023-05-10T02:43:13;101695.00;;;15.10
12918;BMP180;6526;54.312;13.092;2023-05-10T02:45:40;101678.00;;;15.00
12918;BMP180;6526;54.312;13.092;2023-05-10T02:48:07;101691.00;;;15.10
12918;BMP180;6526;54.312;13.092;2023-05-10T02:50:34;101701.00;;;15.10
12918;BMP180;6526;54.312;13.092;2023-05-10T02:53:15;101691.00;;;15.10
12918;BMP180;6526;54.312;13.092;2023-05-10T02:55:42;101694.00;;;15.00
12918;BMP180;6526;54.312;13.092;2023-05-10T02:58:11;101691.00;;;15.00
12918;BMP180;6526;54.312;13.092;2023-05-10T03:00:37;101698.00;;;15.00
12918;BMP180;6526;54.312;13.092;2023-05-10T03:03:03;101689.00;;;15.00
12918;BMP180;6526;54.312;13.092;2023-05-10T03:05:29;101685.00;;;15.00
12918;BMP180;6526;54.312;13.092;2023-05-10T03:07:55;101683.00;;;14.90
12918;BMP180;6526;54.312;13.092;2023-05-10T03:10:27;101691.00;;;14.80
12918;BMP180;6526;54.312;13.092;2023-05-10T03:18:47;101683.00;;;14.80
12918;BMP180;6526;54.312;13.092;2023-05-10T03:21:14;101684.00;;;14.80
12918;BMP180;6526;54.312;13.092;2023-05-10T03:23:48;101689.00;;;14.80
12918;BMP180;6526;54.312;13.092;2023-05-10T03:26:22;101690.00;;;14.40
12918;BMP180;6526;54.312;13.092;2023-05-10T03:28:50;101692.00;;;14.70
12918;BMP180;6526;54.312;13.092;2023-05-10T03:31:17;101683.00;;;14.70
12918;BMP180;6526;54.312;13.092;2023-05-10T03:33:48;101697.00;;;14.80
12918;BMP180;6526;54.312;13.092;2023-05-10T03:36:14;101688.00;;;14.80
12918;BMP180;6526;54.312;13.092;2023-05-10T03:38:40;101676.00;;;14.80
12918;BMP180;6526;54.312;13.092;2023-05-10T03:41:06;101682.00;;;14.80
12918;BMP180;6526;54.312;13.092;2023-05-10T03:43:32;101669.00;;;14.80
12918;BMP180;6526;54.312;13.092;2023-05-10T03:45:58;101684.00;;;14.70
12918;BMP180;6526;54.312;13.092;2023-05-10T03:48:24;101679.00;;;14.70
12918;BMP180;6526;54.312;13.092;2023-05-10T03:50:50;101671.00;;;14.70
12918;BMP180;6526;54.312;13.092;2023-05-10T03:53:16;101676.00;;;14.70
12918;BMP180;6526;54.312;13.092;2023-05-10T03:55:42;101666.00;;;14.70
12918;BMP180;6526;54.312;13.092;2023-05-10T03:58:11;101676.00;;;14.70
12918;BMP180;6526;54.312;13.092;2023-05-10T04:00:37;101660.00;;;14.70
12918;BMP180;6526;54.312;13.092;2023-05-10T04:03:09;101664.00;;;14.60
12918;BMP180;6526;54.312;13.092;2023-05-10T04:05:35;101676.00;;;14.70
12918;BMP180;6526;54.312;13.092;2023-05-10T04:08:02;101665.00;;;14.70
12918;BMP180;6526;54.312;13.092;2023-05-10T04:10:28;101663.00;;;14.70
12918;BMP180;6526;54.312;13.092;2023-05-10T04:12:54;101671.00;;;14.70
12918;BMP180;6526;54.312;13.092;2023-05-10T04:15:20;101659.00;;;14.70
12918;BMP180;6526;54.312;13.092;2023-05-10T04:17:47;101668.00;;;14.80
12918;BMP180;6526;54.312;13.092;2023-05-10T04:20:14;101664.00;;;14.90
12918;BMP180;6526;54.312;13.092;2023-05-10T04:22:40;101660.00;;;14.90
12918;BMP180;6526;54.312;13.092;2023-05-10T04:25:06;101650.00;;;14.90
12918;BMP180;6526;54.312;13.092;2023-05-10T04:27:33;101659.00;;;15.00
12918;BMP180;6526;54.312;13.092;2023-05-10T04:29:59;101650.00;;;15.10
12918;BMP180;6526;54.312;13.092;2023-05-10T04:32:25;101650.00;;;15.10
12918;BMP180;6526;54.312;13.092;2023-05-10T04:34:51;101647.00;;;15.10
12918;BMP180;6526;54.312;13.092;2023-05-10T04:37:17;101653.00;;;15.10
12918;BMP180;6526;54.312;13.092;2023-05-10T04:39:43;101647.00;;;15.20
12918;BMP180;6526;54.312;13.092;2023-05-10T04:42:09;101659.00;;;15.30
12918;BMP180;6526;54.312;13.092;2023-05-10T04:44:35;101663.00;;;15.30
12918;BMP180;6526;54.312;13.092;2023-05-10T04:47:02;101649.00;;;15.40
12918;BMP180;6526;54.312;13.092;2023-05-10T04:49:29;101656.00;;;15.40
12918;BMP180;6526;54.312;13.092;2023-05-10T04:51:55;101668.00;;;15.50
12918;BMP180;6526;54.312;13.092;2023-05-10T04:54:21;101658.00;;;15.60
12918;BMP180;6526;54.312;13.092;2023-05-10T04:56:47;101657.00;;;15.70
12918;BMP180;6526;54.312;13.092;2023-05-10T04:59:14;101657.00;;;15.70
12918;BMP180;6526;54.312;13.092;2023-05-10T05:01:40;101649.00;;;15.70
12918;BMP180;6526;54.312;13.092;2023-05-10T05:04:06;101671.00;;;15.80
12918;BMP180;6526;54.312;13.092;2023-05-10T05:06:32;101658.00;;;15.80
12918;BMP180;6526;54.312;13.092;2023-05-10T05:08:58;101665.00;;;16.00
12918;BMP180;6526;54.312;13.092;2023-05-10T05:11:24;101657.00;;;16.00
12918;BMP180;6526;54.312;13.092;2023-05-10T05:13:51;101662.00;;;16.00
12918;BMP180;6526;54.312;13.092;2023-05-10T05:16:17;101669.00;;;16.10
12918;BMP180;6526;54.312;13.092;2023-05-10T05:18:43;101667.00;;;16.20
12918;BMP180;6526;54.312;13.092;2023-05-10T05:21:16;101664.00;;;16.30
12918;BMP180;6526;54.312;13.092;2023-05-10T05:23:42;101678.00;;;16.30
12918;BMP180;6526;54.312;13.092;2023-05-10T05:26:09;101668.00;;;16.30
12918;BMP180;6526;54.312;13.092;2023-05-10T05:28:35;101675.00;;;16.30
12918;BMP180;6526;54.312;13.092;2023-05-10T05:31:06;101673.00;;;16.40
12918;BMP180;6526;54.312;13.092;2023-05-10T05:33:33;101660.00;;;16.40
12918;BMP180;6526;54.312;13.092;2023-05-10T05:36:04;101665.00;;;16.40
12918;BMP180;6526;54.312;13.092;2023-05-10T05:38:30;101675.00;;;16.50
12918;BMP180;6526;54.312;13.092;2023-05-10T05:40:56;101655.00;;;16.60
12918;BMP180;6526;54.312;13.092;2023-05-10T05:43:22;101654.00;;;16.60
12918;BMP180;6526;54.312;13.092;2023-05-10T05:45:49;101657.00;;;16.70
12918;BMP180;6526;54.312;13.092;2023-05-10T05:48:15;101665.00;;;16.70
12918;BMP180;6526;54.312;13.092;2023-05-10T05:50:41;101659.00;;;16.80
12918;BMP180;6526;54.312;13.092;2023-05-10T05:53:07;101669.00;;;16.90
12918;BMP180;6526;54.312;13.092;2023-05-10T05:55:34;101672.00;;;17.00
12918;BMP180;6526;54.312;13.092;2023-05-10T05:58:00;101655.00;;;16.90
12918;BMP180;6526;54.312;13.092;2023-05-10T06:00:26;101651.00;;;17.00
12918;BMP180;6526;54.312;13.092;2023-05-10T06:02:52;101663.00;;;17.10
12918;BMP180;6526;54.312;13.092;2023-05-10T06:05:18;101649.00;;;17.20
12918;BMP180;6526;54.312;13.092;2023-05-10T06:07:44;101648.00;;;17.30
12918;BMP180;6526;54.312;13.092;2023-05-10T06:10:10;101648.00;;;17.40
12918;BMP180;6526;54.312;13.092;2023-05-10T06:12:36;101646.00;;;17.40
12918;BMP180;6526;54.312;13.092;2023-05-10T06:15:03;101654.00;;;17.50
12918;BMP180;6526;54.312;13.092;2023-05-10T06:17:29;101616.00;;;17.40
12918;BMP180;6526;54.312;13.092;2023-05-10T06:19:55;101647.00;;;17.50
12918;BMP180;6526;54.312;13.092;2023-05-10T06:22:21;101639.00;;;17.50
12918;BMP180;6526;54.312;13.092;2023-05-10T06:24:48;101637.00;;;17.40
12918;BMP180;6526;54.312;13.092;2023-05-10T06:27:15;101640.00;;;17.40
12918;BMP180;6526;54.312;13.092;2023-05-10T06:29:41;101646.00;;;17.40
12918;BMP180;6526;54.312;13.092;2023-05-10T06:32:07;101642.00;;;17.60
12918;BMP180;6526;54.312;13.092;2023-05-10T06:34:33;101659.00;;;17.80
12918;BMP180;6526;54.312;13.092;2023-05-10T06:36:59;101646.00;;;17.80
12918;BMP180;6526;54.312;13.092;2023-05-10T06:39:25;101643.00;;;18.00
12918;BMP180;6526;54.312;13.092;2023-05-10T06:41:51;101638.00;;;18.10
12918;BMP180;6526;54.312;13.092;2023-05-10T06:44:17;101642.00;;;18.10
12918;BMP180;6526;54.312;13.092;2023-05-10T06:46:43;101636.00;;;18.20
12918;BMP180;6526;54.312;13.092;2023-05-10T06:49:09;101636.00;;;18.20
12918;BMP180;6526;54.312;13.092;2023-05-10T06:51:35;101631.00;;;18.30
12918;BMP180;6526;54.312;13.092;2023-05-10T06:54:01;101642.00;;;18.20
12918;BMP180;6526;54.312;13.092;2023-05-10T06:56:27;101629.00;;;18.30
12918;BMP180;6526;54.312;13.092;2023-05-10T06:58:53;101640.00;;;18.50
12918;BMP180;6526;54.312;13.092;2023-05-10T07:01:19;101643.00;;;18.70
12918;BMP180;6526;54.312;13.092;2023-05-10T07:03:45;101642.00;;;18.70
12918;BMP180;6526;54.312;13.092;2023-05-10T07:06:11;101631.00;;;18.70
12918;BMP180;6526;54.312;13.092;2023-05-10T07:08:37;101626.00;;;18.90
12918;BMP180;6526;54.312;13.092;2023-05-10T07:11:05;101634.00;;;19.00
12918;BMP180;6526;54.312;13.092;2023-05-10T07:13:33;101619.00;;;19.10
12918;BMP180;6526;54.312;13.092;2023-05-10T07:16:00;101615.00;;;19.20
12918;BMP180;6526;54.312;13.092;2023-05-10T07:18:27;101595.00;;;19.30
12918;BMP180;6526;54.312;13.092;2023-05-10T07:20:53;101609.00;;;19.40
12918;BMP180;6526;54.312;13.092;2023-05-10T07:23:19;101603.00;;;19.30
12918;BMP180;6526;54.312;13.092;2023-05-10T07:25:47;101622.00;;;19.30
12918;BMP180;6526;54.312;13.092;2023-05-10T07:28:14;101616.00;;;19.40
12918;BMP180;6526;54.312;13.092;2023-05-10T07:30:41;101606.00;;;19.60
12918;BMP180;6526;54.312;13.092;2023-05-10T07:33:08;101616.00;;;19.60
12918;BMP180;6526;54.312;13.092;2023-05-10T07:35:35;101607.00;;;19.70
12918;BMP180;6526;54.312;13.092;2023-05-10T07:38:01;101625.00;;;19.80
12918;BMP180;6526;54.312;13.092;2023-05-10T07:40:28;101615.00;;;20.00
12918;BMP180;6526;54.312;13.092;2023-05-10T07:42:54;101619.00;;;20.10
12918;BMP180;6526;54.312;13.092;2023-05-10T07:45:20;101609.00;;;20.00
12918;BMP180;6526;54.312;13.092;2023-05-10T07:47:46;101607.00;;;20.10
12918;BMP180;6526;54.312;13.092;2023-05-10T07:50:13;101613.00;;;20.20
12918;BMP180;6526;54.312;13.092;2023-05-10T07:52:39;101609.00;;;20.40
12918;BMP180;6526;54.312;13.092;2023-05-10T07:55:05;101608.00;;;20.40
12918;BMP180;6526;54.312;13.092;2023-05-10T07:57:33;101612.00;;;20.40
12918;BMP180;6526;54.312;13.092;2023-05-10T07:59:59;101600.00;;;20.50
12918;BMP180;6526;54.312;13.092;2023-05-10T08:02:25;101606.00;;;20.60
12918;BMP180;6526;54.312;13.092;2023-05-10T08:04:51;101601.00;;;20.60
12918;BMP180;6526;54.312;13.092;2023-05-10T08:07:18;101602.00;;;20.70
12918;BMP180;6526;54.312;13.092;2023-05-10T08:09:44;101596.00;;;20.90
12918;BMP180;6526;54.312;13.092;2023-05-10T08:12:10;101598.00;;;20.80
12918;BMP180;6526;54.312;13.092;2023-05-10T08:14:36;101606.00;;;20.90
12918;BMP180;6526;54.312;13.092;2023-05-10T08:17:05;101606.00;;;20.90
12918;BMP180;6526;54.312;13.092;2023-05-10T08:19:31;101598.00;;;20.90
12918;BMP180;6526;54.312;13.092;2023-05-10T08:21:57;101613.00;;;21.10
12918;BMP180;6526;54.312;13.092;2023-05-10T08:24:23;101590.00;;;21.20
12918;BMP180;6526;54.312;13.092;2023-05-10T08:26:49;101606.00;;;21.20
12918;BMP180;6526;54.312;13.092;2023-05-10T08:29:15;101588.00;;;21.00
12918;BMP180;6526;54.312;13.092;2023-05-10T08:31:41;101602.00;;;21.10
12918;BMP180;6526;54.312;13.092;2023-05-10T08:34:07;101598.00;;;21.20
12918;BMP180;6526;54.312;13.092;2023-05-10T08:36:33;101589.00;;;21.30
12918;BMP180;6526;54.312;13.092;2023-05-10T08:38:59;101576.00;;;21.30
12918;BMP180;6526;54.312;13.092;2023-05-10T08:41:25;101592.00;;;21.30
12918;BMP180;6526;54.312;13.092;2023-05-10T08:43:52;101590.00;;;21.40
12918;BMP180;6526;54.312;13.092;2023-05-10T08:46:20;101599.00;;;21.30
12918;BMP180;6526;54.312;13.092;2023-05-10T08:48:47;101597.00;;;21.40
12918;BMP180;6526;54.312;13.092;2023-05-10T08:51:24;101596.00;;;21.30
12918;BMP180;6526;54.312;13.092;2023-05-10T08:53:52;101597.00;;;21.40
12918;BMP180;6526;54.312;13.092;2023-05-10T08:56:19;101603.00;;;21.60
12918;BMP180;6526;54.312;13.092;2023-05-10T08:58:47;101598.00;;;21.90
12918;BMP180;6526;54.312;13.092;2023-05-10T09:01:16;101596.00;;;21.80
12918;BMP180;6526;54.312;13.092;2023-05-10T09:03:42;101607.00;;;21.90
12918;BMP180;6526;54.312;13.092;2023-05-10T09:06:09;101594.00;;;22.00
12918;BMP180;6526;54.312;13.092;2023-05-10T09:08:37;101609.00;;;22.10
12918;BMP180;6526;54.312;13.092;2023-05-10T09:11:03;101597.00;;;22.20
12918;BMP180;6526;54.312;13.092;2023-05-10T09:13:29;101592.00;;;22.30
12918;BMP180;6526;54.312;13.092;2023-05-10T09:15:56;101586.00;;;22.40
12918;BMP180;6526;54.312;13.092;2023-05-10T09:18:22;101592.00;;;22.40
12918;BMP180;6526;54.312;13.092;2023-05-10T09:20:48;101589.00;;;22.40
12918;BMP180;6526;54.312;13.092;2023-05-10T09:23:15;101590.00;;;22.30
12918;BMP180;6526;54.312;13.092;2023-05-10T09:25:44;101590.00;;;22.20
12918;BMP180;6526;54.312;13.092;2023-05-10T09:28:11;101594.00;;;22.40
12918;BMP180;6526;54.312;13.092;2023-05-10T09:30:38;101588.00;;;22.40
12918;BMP180;6526;54.312;13.092;2023-05-10T09:33:04;101598.00;;;22.40
12918;BMP180;6526;54.312;13.092;2023-05-10T09:35:31;101586.00;;;22.50
12918;BMP180;6526;54.312;13.092;2023-05-10T09:38:00;101604.00;;;22.50
12918;BMP180;6526;54.312;13.092;2023-05-10T09:40:28;101594.00;;;22.60
12918;BMP180;6526;54.312;13.092;2023-05-10T09:43:03;101600.00;;;22.60
12918;BMP180;6526;54.312;13.092;2023-05-10T09:45:33;101586.00;;;22.60
12918;BMP180;6526;54.312;13.092;2023-05-10T09:48:02;101595.00;;;22.70
12918;BMP180;6526;54.312;13.092;2023-05-10T09:50:30;101589.00;;;22.90
12918;BMP180;6526;54.312;13.092;2023-05-10T09:52:58;101590.00;;;23.00
12918;BMP180;6526;54.312;13.092;2023-05-10T09:58:05;101579.00;;;23.00
12918;BMP180;6526;54.312;13.092;2023-05-10T10:00:36;101579.00;;;22.90
12918;BMP180;6526;54.312;13.092;2023-05-10T10:03:03;101572.00;;;23.00
12918;BMP180;6526;54.312;13.092;2023-05-10T10:05:30;101596.00;;;22.90
12918;BMP180;6526;54.312;13.092;2023-05-10T10:07:58;101582.00;;;22.90
12918;BMP180;6526;54.312;13.092;2023-05-10T10:10:27;101585.00;;;23.00
12918;BMP180;6526;54.312;13.092;2023-05-10T10:12:54;101567.00;;;22.90
12918;BMP180;6526;54.312;13.092;2023-05-10T10:15:21;101577.00;;;23.20
12918;BMP180;6526;54.312;13.092;2023-05-10T10:17:48;101574.00;;;23.20
12918;BMP180;6526;54.312;13.092;2023-05-10T10:20:15;101569.00;;;23.40
12918;BMP180;6526;54.312;13.092;2023-05-10T10:22:42;101579.00;;;23.40
12918;BMP180;6526;54.312;13.092;2023-05-10T10:25:12;101574.00;;;23.50
12918;BMP180;6526;54.312;13.092;2023-05-10T10:30:40;101570.00;;;23.40
12918;BMP180;6526;54.312;13.092;2023-05-10T10:35:39;101557.00;;;23.60
12918;BMP180;6526;54.312;13.092;2023-05-10T10:38:08;101560.00;;;23.90
12918;BMP180;6526;54.312;13.092;2023-05-10T10:40:34;101570.00;;;24.00
12918;BMP180;6526;54.312;13.092;2023-05-10T10:43:24;101567.00;;;24.00
12918;BMP180;6526;54.312;13.092;2023-05-10T10:46:10;101570.00;;;24.10
12918;BMP180;6526;54.312;13.092;2023-05-10T10:48:37;101567.00;;;24.10
12918;BMP180;6526;54.312;13.092;2023-05-10T10:51:03;101573.00;;;24.10
12918;BMP180;6526;54.312;13.092;2023-05-10T10:53:30;101561.00;;;24.10
12918;BMP180;6526;54.312;13.092;2023-05-10T10:56:10;101564.00;;;24.20
12918;BMP180;6526;54.312;13.092;2023-05-10T10:58:38;101579.00;;;24.10
12918;BMP180;6526;54.312;13.092;2023-05-10T11:01:20;101564.00;;;24.30
12918;BMP180;6526;54.312;13.092;2023-05-10T11:06:31;101565.00;;;24.50
12918;BMP180;6526;54.312;13.092;2023-05-10T11:08:58;101561.00;;;24.30
12918;BMP180;6526;54.312;13.092;2023-05-10T11:11:25;101557.00;;;24.20
12918;BMP180;6526;54.312;13.092;2023-05-10T11:13:51;101566.00;;;24.20
12918;BMP180;6526;54.312;13.092;2023-05-10T11:16:24;101566.00;;;24.20
12918;BMP180;6526;54.312;13.092;2023-05-10T11:19:08;101556.00;;;24.10
12918;BMP180;6526;54.312;13.092;2023-05-10T11:21:48;101568.00;;;24.10
12918;BMP180;6526;54.312;13.092;2023-05-10T11:24:20;101554.00;;;24.00
12918;BMP180;6526;54.312;13.092;2023-05-10T11:26:48;101562.00;;;24.00
12918;BMP180;6526;54.312;13.092;2023-05-10T11:29:16;101552.00;;;24.00
12918;BMP180;6526;54.312;13.092;2023-05-10T11:31:43;101572.00;;;24.00
12918;BMP180;6526;54.312;13.092;2023-05-10T11:34:11;101572.00;;;23.90
12918;BMP180;6526;54.312;13.092;2023-05-10T11:36:37;101562.00;;;23.80
12918;BMP180;6526;54.312;13.092;2023-05-10T11:39:03;101558.00;;;24.00
12918;BMP180;6526;54.312;13.092;2023-05-10T11:41:30;101555.00;;;24.20
12918;BMP180;6526;54.312;13.092;2023-05-10T11:43:57;101560.00;;;24.30
12918;BMP180;6526;54.312;13.092;2023-05-10T11:46:25;101560.00;;;24.40
12918;BMP180;6526;54.312;13.092;2023-05-10T11:48:55;101546.00;;;24.30
12918;BMP180;6526;54.312;13.092;2023-05-10T11:51:23;101552.00;;;24.30
12918;BMP180;6526;54.312;13.092;2023-05-10T11:53:52;101552.00;;;24.30
12918;BMP180;6526;54.312;13.092;2023-05-10T11:56:18;101559.00;;;24.30
12918;BMP180;6526;54.312;13.092;2023-05-10T11:58:44;101562.00;;;24.20
12918;BMP180;6526;54.312;13.092;2023-05-10T12:01:12;101567.00;;;24.40
12918;BMP180;6526;54.312;13.092;2023-05-10T12:03:39;101584.00;;;24.30
12918;BMP180;6526;54.312;13.092;2023-05-10T12:06:07;101568.00;;;24.30
12918;BMP180;6526;54.312;13.092;2023-05-10T12:08:33;101571.00;;;24.20
12918;BMP180;6526;54.312;13.092;2023-05-10T12:11:07;101573.00;;;24.20
12918;BMP180;6526;54.312;13.092;2023-05-10T12:13:38;101581.00;;;24.20
12918;BMP180;6526;54.312;13.092;2023-05-10T12:16:18;101561.00;;;24.30
12918;BMP180;6526;54.312;13.092;2023-05-10T12:18:45;101578.00;;;24.30
12918;BMP180;6526;54.312;13.092;2023-05-10T12:21:13;101566.00;;;24.30
12918;BMP180;6526;54.312;13.092;2023-05-10T12:23:41;101578.00;;;24.40
12918;BMP180;6526;54.312;13.092;2023-05-10T12:26:09;101575.00;;;24.40
12918;BMP180;6526;54.312;13.092;2023-05-10T12:28:38;101575.00;;;24.50
12918;BMP180;6526;54.312;13.092;2023-05-10T12:31:07;101571.00;;;24.40
12918;BMP180;6526;54.312;13.092;2023-05-10T12:33:41;101569.00;;;24.30
12918;BMP180;6526;54.312;13.092;2023-05-10T12:36:09;101574.00;;;24.30
12918;BMP180;6526;54.312;13.092;2023-05-10T12:38:38;101568.00;;;24.30
12918;BMP180;6526;54.312;13.092;2023-05-10T12:41:06;101578.00;;;24.40
12918;BMP180;6526;54.312;13.092;2023-05-10T12:43:34;101572.00;;;24.40
12918;BMP180;6526;54.312;13.092;2023-05-10T12:46:13;101562.00;;;24.40
12918;BMP180;6526;54.312;13.092;2023-05-10T12:48:41;101558.00;;;24.50
12918;BMP180;6526;54.312;13.092;2023-05-10T12:51:08;101588.00;;;24.60
12918;BMP180;6526;54.312;13.092;2023-05-10T12:53:35;101575.00;;;24.60
12918;BMP180;6526;54.312;13.092;2023-05-10T12:56:01;101563.00;;;24.50
12918;BMP180;6526;54.312;13.092;2023-05-10T12:58:27;101567.00;;;24.40
12918;BMP180;6526;54.312;13.092;2023-05-10T13:00:54;101576.00;;;24.40
12918;BMP180;6526;54.312;13.092;2023-05-10T13:03:22;101573.00;;;24.40
12918;BMP180;6526;54.312;13.092;2023-05-10T13:05:48;101576.00;;;24.50
12918;BMP180;6526;54.312;13.092;2023-05-10T13:08:14;101566.00;;;24.50
12918;BMP180;6526;54.312;13.092;2023-05-10T13:10:40;101573.00;;;24.60
12918;BMP180;6526;54.312;13.092;2023-05-10T13:13:06;101578.00;;;24.60
12918;BMP180;6526;54.312;13.092;2023-05-10T13:15:34;101571.00;;;24.60
12918;BMP180;6526;54.312;13.092;2023-05-10T13:18:00;101568.00;;;24.60
12918;BMP180;6526;54.312;13.092;2023-05-10T13:20:26;101571.00;;;24.70
12918;BMP180;6526;54.312;13.092;2023-05-10T13:22:53;101568.00;;;24.70
12918;BMP180;6526;54.312;13.092;2023-05-10T13:25:19;101576.00;;;24.60
12918;BMP180;6526;54.312;13.092;2023-05-10T13:27:45;101568.00;;;24.60
12918;BMP180;6526;54.312;13.092;2023-05-10T13:30:11;101580.00;;;24.50
12918;BMP180;6526;54.312;13.092;2023-05-10T13:32:38;101572.00;;;24.40
12918;BMP180;6526;54.312;13.092;2023-05-10T13:35:04;101569.00;;;24.50
12918;BMP180;6526;54.312;13.092;2023-05-10T13:37:31;101560.00;;;24.50
12918;BMP180;6526;54.312;13.092;2023-05-10T13:39:57;101571.00;;;24.60
12918;BMP180;6526;54.312;13.092;2023-05-10T13:42:24;101575.00;;;24.60
12918;BMP180;6526;54.312;13.092;2023-05-10T13:44:50;101561.00;;;24.50
12918;BMP180;6526;54.312;13.092;2023-05-10T13:47:17;101558.00;;;24.60
12918;BMP180;6526;54.312;13.092;2023-05-10T13:49:43;101573.00;;;24.70
12918;BMP180;6526;54.312;13.092;2023-05-10T13:52:09;101567.00;;;24.60
12918;BMP180;6526;54.312;13.092;2023-05-10T13:54:36;101579.00;;;24.70
12918;BMP180;6526;54.312;13.092;2023-05-10T13:57:03;101569.00;;;24.70
12918;BMP180;6526;54.312;13.092;2023-05-10T13:59:30;101576.00;;;24.60
12918;BMP180;6526;54.312;13.092;2023-05-10T14:01:59;101560.00;;;24.60
12918;BMP180;6526;54.312;13.092;2023-05-10T14:04:26;101564.00;;;24.70
12918;BMP180;6526;54.312;13.092;2023-05-10T14:06:52;101567.00;;;24.70
12918;BMP180;6526;54.312;13.092;2023-05-10T14:09:18;101564.00;;;24.70
12918;BMP180;6526;54.312;13.092;2023-05-10T14:11:45;101576.00;;;24.70
12918;BMP180;6526;54.312;13.092;2023-05-10T14:14:12;101561.00;;;24.70
12918;BMP180;6526;54.312;13.092;2023-05-10T14:16:41;101575.00;;;24.80
12918;BMP180;6526;54.312;13.092;2023-05-10T14:19:07;101565.00;;;24.80
12918;BMP180;6526;54.312;13.092;2023-05-10T14:21:34;101565.00;;;24.80
12918;BMP180;6526;54.312;13.092;2023-05-10T14:24:00;101577.00;;;24.80
12918;BMP180;6526;54.312;13.092;2023-05-10T14:26:26;101571.00;;;24.70